Time;durP1;ratioP1;P1;durP2;ratioP2;P2;SDS_P1;SDS_P2;PMS_P1;PMS_P2;Temp;Humidity;BMP_temperature;BMP_pressure;BME280_temperature;BME280_humidity;BME280_pressure;Samples;Min_cycle;Max_cycle;Signal;HPM_P1;HPM_P2
2022/03/20 00:00:10;;;;;;;13.95;11.48;;;14.00;48.30;;;;;;5121388;28;20072;-66
2022/03/20 00:02:36;;;;;;;14.48;11.40;;;13.90;48.30;;;;;;5121437;28;20024;-67
2022/03/20 00:05:03;;;;;;;14.73;11.30;;;14.00;48.30;;;;;;5121277;28;20022;-66
2022/03/20 00:07:31;;;;;;;13.13;10.50;;;13.90;48.30;;;;;;5121227;28;20100;-66
2022/03/20 00:09:58;;;;;;;12.35;10.25;;;13.90;49.00;;;;;;5119961;28;20039;-67
2022/03/20 00:12:23;;;;;;;14.60;11.88;;;13.90;48.40;;;;;;5121167;28;20265;-65
2022/03/20 00:14:49;;;;;;;15.15;11.98;;;13.90;48.30;;;;;;5121112;28;20034;-66
2022/03/20 00:17:15;;;;;;;15.32;11.85;;;13.90;48.30;;;;;;5121140;28;20032;-66
2022/03/20 00:19:41;;;;;;;15.90;11.38;;;13.90;48.30;;;;;;5121010;28;20028;-65
2022/03/20 00:22:07;;;;;;;14.98;11.98;;;13.90;48.30;;;;;;5120967;28;20046;-66
2022/03/20 00:24:34;;;;;;;15.60;12.27;;;13.90;48.40;;;;;;5120943;28;20347;-66
2022/03/20 00:27:00;;;;;;;16.10;11.82;;;13.90;48.30;;;;;;5120779;28;20032;-66
2022/03/20 00:29:27;;;;;;;13.68;11.52;;;13.90;48.40;;;;;;5120849;28;20072;-68
2022/03/20 00:31:54;;;;;;;14.55;11.63;;;13.90;48.40;;;;;;5120812;28;20083;-67
2022/03/20 00:34:20;;;;;;;14.32;11.00;;;13.90;48.40;;;;;;5119431;28;20030;-66
2022/03/20 00:36:45;;;;;;;15.13;11.73;;;13.90;48.40;;;;;;5120759;28;20027;-68
2022/03/20 00:39:11;;;;;;;13.27;10.55;;;13.80;48.30;;;;;;5120657;28;20041;-67
2022/03/20 00:41:37;;;;;;;12.48;10.52;;;13.80;48.40;;;;;;5120682;28;20079;-67
2022/03/20 00:44:03;;;;;;;15.35;11.70;;;13.80;48.30;;;;;;5120568;28;20086;-66
2022/03/20 00:46:29;;;;;;;13.98;11.20;;;13.80;48.40;;;;;;5120409;28;20055;-66
2022/03/20 00:48:54;;;;;;;15.52;11.57;;;13.80;48.30;;;;;;5120483;28;20114;-67
2022/03/20 00:51:20;;;;;;;12.80;10.90;;;13.80;48.40;;;;;;5120470;28;20032;-67
2022/03/20 00:53:46;;;;;;;15.43;11.98;;;13.80;48.40;;;;;;5120482;28;20030;-67
2022/03/20 00:56:15;;;;;;;14.13;11.13;;;13.80;48.40;;;;;;5120423;28;20049;-67
2022/03/20 00:58:40;;;;;;;;;;;13.80;48.40;;;;;;5120797;28;20019;-66
2022/03/20 01:01:10;;;;;;;14.18;11.85;;;13.80;48.40;;;;;;5120336;28;19944;-67
2022/03/20 01:03:36;;;;;;;14.20;10.68;;;13.80;48.40;;;;;;5119926;28;20027;-66
2022/03/20 01:06:02;;;;;;;16.35;11.55;;;13.80;48.40;;;;;;5120287;27;20485;-66
2022/03/20 01:08:27;;;;;;;14.32;10.80;;;13.80;48.40;;;;;;5120181;28;20027;-66
2022/03/20 01:10:53;;;;;;;14.77;11.65;;;13.80;48.40;;;;;;5120111;28;20319;-68
2022/03/20 01:13:19;;;;;;;13.80;10.68;;;13.70;48.30;;;;;;5120120;28;20023;-65
2022/03/20 01:15:45;;;;;;;15.25;12.18;;;13.70;48.30;;;;;;5120106;28;20054;-67
2022/03/20 01:18:11;;;;;;;15.05;11.35;;;13.70;48.40;;;;;;5120034;28;20370;-67
2022/03/20 01:20:36;;;;;;;13.85;11.05;;;13.70;48.30;;;;;;5120031;28;20338;-65
2022/03/20 01:23:02;;;;;;;13.30;11.13;;;13.70;48.40;;;;;;5120048;28;20054;-66
2022/03/20 01:25:30;;;;;;;14.10;11.35;;;13.70;48.50;;;;;;5119961;28;20026;-67
2022/03/20 01:27:56;;;;;;;15.02;11.82;;;13.70;48.40;;;;;;5119919;28;20351;-67
2022/03/20 01:30:22;;;;;;;14.40;11.05;;;13.70;48.40;;;;;;5119977;28;20023;-68
2022/03/20 01:32:47;;;;;;;14.73;11.35;;;13.70;48.50;;;;;;5119975;28;20498;-67
2022/03/20 01:35:13;;;;;;;13.98;11.13;;;13.70;48.40;;;;;;5119928;28;20027;-66
2022/03/20 01:37:41;;;;;;;14.75;11.27;;;13.70;48.40;;;;;;5119886;28;20023;-67
2022/03/20 01:40:08;;;;;;;15.13;11.50;;;13.70;48.40;;;;;;5119920;28;20019;-66
2022/03/20 01:42:38;;;;;;;13.90;11.65;;;13.70;48.40;;;;;;5118533;28;20036;-66
2022/03/20 01:45:21;;;;;;;15.07;11.20;;;13.70;48.40;;;;;;5119598;28;20105;-66
2022/03/20 01:47:49;;;;;;;14.88;11.32;;;13.70;48.40;;;;;;5119731;28;20016;-66
2022/03/20 01:50:24;;;;;;;12.77;10.93;;;13.70;48.40;;;;;;5119768;28;20019;-66
2022/03/20 01:52:51;;;;;;;14.68;11.80;;;13.70;48.40;;;;;;5119779;28;20252;-67
2022/03/20 01:55:18;;;;;;;14.20;11.30;;;13.70;48.40;;;;;;5119713;28;20031;-67
2022/03/20 01:57:44;;;;;;;14.00;10.57;;;13.60;48.40;;;;;;5119672;28;20031;-66
2022/03/20 02:00:14;;;;;;;13.65;11.02;;;13.60;48.30;;;;;;5119674;28;20091;-66
2022/03/20 02:02:40;;;;;;;15.98;11.70;;;13.60;48.40;;;;;;5119559;28;20091;-66
2022/03/20 02:05:10;;;;;;;16.02;11.90;;;13.60;48.40;;;;;;5119631;28;20032;-66
2022/03/20 02:07:38;;;;;;;14.15;11.25;;;13.60;48.40;;;;;;5119473;28;20047;-67
2022/03/20 02:10:05;;;;;;;15.18;11.45;;;13.60;48.40;;;;;;5119596;28;20019;-66
2022/03/20 02:12:31;;;;;;;14.13;11.20;;;13.60;48.40;;;;;;5119478;28;20019;-67
2022/03/20 02:14:58;;;;;;;12.93;10.40;;;13.60;48.40;;;;;;5119425;28;20329;-67
2022/03/20 02:17:28;;;;;;;15.52;11.88;;;13.60;48.30;;;;;;5123191;28;20095;-66
2022/03/20 02:19:57;;;;;;;14.43;11.13;;;13.60;48.30;;;;;;5123675;28;20019;-66
2022/03/20 02:22:24;;;;;;;13.45;11.00;;;13.60;48.40;;;;;;5123391;28;20341;-68
2022/03/20 02:24:51;;;;;;;13.98;11.10;;;13.60;48.30;;;;;;5123572;28;20027;-66
2022/03/20 02:27:25;;;;;;;14.10;11.43;;;13.60;48.40;;;;;;5123164;28;20043;-67
2022/03/20 02:29:57;;;;;;;14.50;11.25;;;13.60;48.40;;;;;;5123238;28;20030;-67
2022/03/20 02:32:28;;;;;;;15.00;11.07;;;13.60;48.30;;;;;;5123214;28;20068;-67
2022/03/20 02:34:55;;;;;;;14.40;11.88;;;13.60;48.40;;;;;;5123139;28;20023;-66
2022/03/20 02:37:23;;;;;;;13.15;11.35;;;13.60;48.40;;;;;;5123159;28;20054;-66
2022/03/20 02:39:50;;;;;;;14.57;11.48;;;13.60;48.40;;;;;;5123068;28;20031;-67
2022/03/20 02:42:16;;;;;;;15.15;11.55;;;13.60;48.40;;;;;;5122936;28;20038;-66
2022/03/20 02:44:54;;;;;;;15.48;11.73;;;13.60;48.40;;;;;;5122733;28;20304;-66
2022/03/20 02:47:25;;;;;;;13.55;11.02;;;13.60;49.10;;;;;;5122848;28;20072;-66
2022/03/20 02:49:53;;;;;;;12.27;10.10;;;13.60;48.40;;;;;;5122868;28;20270;-66
2022/03/20 02:52:28;;;;;;;14.23;11.38;;;13.60;48.50;;;;;;5122670;28;20051;-67
2022/03/20 02:55:03;;;;;;;14.15;11.07;;;13.60;48.50;;;;;;5122800;28;20403;-67
2022/03/20 02:57:30;;;;;;;12.88;10.73;;;13.60;48.40;;;;;;5122712;28;20027;-67
2022/03/20 03:00:00;;;;;;;14.65;11.10;;;13.50;48.30;;;;;;5122646;27;20038;-66
2022/03/20 03:02:30;;;;;;;14.57;11.32;;;13.50;48.40;;;;;;5122641;28;20035;-67
2022/03/20 03:04:59;;;;;;;12.50;10.35;;;13.60;48.50;;;;;;5120906;28;20076;-66
2022/03/20 03:07:28;;;;;;;13.93;10.75;;;13.50;48.40;;;;;;5122392;28;20030;-68
2022/03/20 03:12:38;;;;;;;13.00;10.20;;;13.50;48.40;;;;;;5122440;28;20069;-65
2022/03/20 03:15:19;;;;;;;14.15;10.52;;;13.50;48.50;;;;;;5122348;28;20023;-66
2022/03/20 03:17:49;;;;;;;15.45;11.88;;;13.50;48.50;;;;;;5122367;28;20609;-66
2022/03/20 03:20:17;;;;;;;15.32;11.43;;;13.50;48.40;;;;;;5122328;28;20080;-69
2022/03/20 03:22:42;;;;;;;13.75;11.13;;;13.50;48.50;;;;;;5122282;28;20027;-66
2022/03/20 03:25:08;;;;;;;13.73;11.20;;;13.50;48.40;;;;;;5122191;28;20051;-66
2022/03/20 03:27:34;;;;;;;13.95;10.98;;;13.50;48.50;;;;;;5121845;28;20094;-66
2022/03/20 03:30:00;;;;;;;14.57;10.85;;;13.50;48.40;;;;;;5122089;28;20027;-67
2022/03/20 03:32:26;;;;;;;14.32;11.48;;;13.50;48.40;;;;;;5122062;28;20016;-66
2022/03/20 03:37:36;;;;;;;14.32;10.88;;;13.50;48.40;;;;;;5121906;28;20027;-66
2022/03/20 03:40:04;;;;;;;14.60;10.95;;;13.50;48.40;;;;;;5121874;28;20023;-67
2022/03/20 03:42:30;;;;;;;14.52;11.07;;;13.50;48.40;;;;;;5121812;28;20039;-68
2022/03/20 03:44:57;;;;;;;13.38;10.73;;;13.50;48.50;;;;;;5121611;28;20132;-67
2022/03/20 03:47:24;;;;;;;14.00;11.32;;;13.50;48.50;;;;;;5121696;28;20063;-68
2022/03/20 03:49:50;;;;;;;12.88;10.27;;;13.50;48.40;;;;;;5120363;28;20331;-67
2022/03/20 03:52:16;;;;;;;15.88;11.07;;;13.40;48.40;;;;;;5120288;28;20024;-66
2022/03/20 03:54:42;;;;;;;14.38;10.68;;;13.50;48.40;;;;;;5121578;28;20023;-66
2022/03/20 03:57:08;;;;;;;14.07;10.82;;;13.50;48.50;;;;;;5121541;28;20038;-67
2022/03/20 03:59:34;;;;;;;14.43;10.68;;;13.40;48.40;;;;;;5121509;28;20031;-66
2022/03/20 04:02:00;;;;;;;12.38;10.43;;;13.40;48.30;;;;;;5121426;28;20080;-67
2022/03/20 04:04:27;;;;;;;14.20;10.90;;;13.50;48.50;;;;;;5121397;28;20027;-66
2022/03/20 04:06:54;;;;;;;13.80;11.02;;;13.40;48.40;;;;;;5121224;28;20051;-68
2022/03/20 04:09:20;;;;;;;13.77;10.88;;;13.40;48.30;;;;;;5121265;28;20031;-66
2022/03/20 04:11:46;;;;;;;13.57;10.52;;;13.40;48.40;;;;;;5121201;28;20027;-66
2022/03/20 04:14:12;;;;;;;12.93;10.25;;;13.40;48.40;;;;;;5121104;28;20131;-67
2022/03/20 04:16:37;;;;;;;13.30;10.73;;;13.40;48.50;;;;;;5121111;28;20333;-66
2022/03/20 04:19:03;;;;;;;14.32;10.85;;;13.40;48.40;;;;;;5120984;28;20069;-66
2022/03/20 04:21:29;;;;;;;13.38;9.95;;;13.40;48.50;;;;;;5121026;28;20038;-67
2022/03/20 04:23:55;;;;;;;13.73;10.35;;;13.40;48.50;;;;;;5120991;28;20028;-67
2022/03/20 04:26:22;;;;;;;13.43;10.90;;;13.40;49.10;;;;;;5120989;28;20021;-67
2022/03/20 04:28:52;;;;;;;13.38;10.18;;;13.40;48.50;;;;;;5120772;28;20232;-67
2022/03/20 04:31:20;;;;;;;15.20;11.02;;;13.40;48.50;;;;;;5120912;28;20023;-67
2022/03/20 04:33:51;;;;;;;12.77;10.70;;;13.40;48.50;;;;;;5120754;28;20042;-67
2022/03/20 04:36:22;;;;;;;14.80;11.30;;;13.40;48.60;;;;;;5120797;28;20308;-68
2022/03/20 04:38:49;;;;;;;14.60;11.70;;;13.40;48.50;;;;;;5120119;28;20023;-67
2022/03/20 04:41:15;;;;;;;14.00;11.05;;;13.40;48.50;;;;;;5119545;28;20422;-67
2022/03/20 04:43:40;;;;;;;13.32;10.60;;;13.40;48.40;;;;;;5120566;28;20023;-66
2022/03/20 04:46:06;;;;;;;12.05;9.90;;;13.30;48.50;;;;;;5120347;28;20047;-66
2022/03/20 04:59:28;;;;;;;14.13;10.75;;;13.30;48.50;;;;;;5120331;28;20339;-67
2022/03/20 05:01:54;;;;;;;13.90;10.23;;;13.30;48.50;;;;;;5120297;28;20031;-67
2022/03/20 05:04:20;;;;;;;12.88;10.45;;;13.30;48.50;;;;;;5120171;28;20016;-65
2022/03/20 05:06:45;;;;;;;13.05;10.40;;;13.30;48.60;;;;;;5120062;28;20019;-66
2022/03/20 05:14:41;;;;;;;12.38;10.80;;;13.30;48.50;;;;;;5120126;28;20338;-66
2022/03/20 05:17:07;;;;;;;13.77;10.82;;;13.30;48.50;;;;;;5120114;28;20023;-67
2022/03/20 05:19:38;;;;;;;13.48;10.40;;;13.30;48.60;;;;;;5120012;28;20039;-66
2022/03/20 05:22:05;;;;;;;13.43;10.40;;;13.30;48.50;;;;;;5119994;28;20460;-66
2022/03/20 05:24:34;;;;;;;15.23;11.13;;;13.30;48.50;;;;;;5118665;28;20319;-67
2022/03/20 05:27:00;;;;;;;13.00;9.73;;;13.30;48.60;;;;;;5119892;28;20083;-66
2022/03/20 05:29:25;;;;;;;15.07;11.18;;;13.30;48.50;;;;;;5119905;28;20039;-67
2022/03/20 05:31:53;;;;;;;14.07;10.98;;;13.30;48.40;;;;;;5119953;28;20015;-67
2022/03/20 05:34:19;;;;;;;13.63;10.88;;;13.30;48.40;;;;;;5119794;28;20086;-67
2022/03/20 05:36:45;;;;;;;14.93;11.73;;;13.30;48.50;;;;;;5119887;28;20024;-67
2022/03/20 05:39:11;;;;;;;14.55;10.98;;;13.30;48.40;;;;;;5119828;28;20039;-68
2022/03/20 05:41:47;;;;;;;11.80;10.13;;;13.30;48.50;;;;;;5119807;28;20212;-66
2022/03/20 05:44:16;;;;;;;13.48;10.88;;;13.30;48.50;;;;;;5119797;28;20019;-67
2022/03/20 05:46:46;;;;;;;13.05;10.07;;;13.30;48.60;;;;;;5119529;28;20032;-67
2022/03/20 05:49:15;;;;;;;12.18;10.23;;;13.30;48.60;;;;;;5119822;28;20234;-67
2022/03/20 05:51:42;;;;;;;13.75;10.43;;;13.30;48.50;;;;;;5123942;28;20029;-66
2022/03/20 05:54:09;;;;;;;13.60;10.68;;;13.30;48.50;;;;;;5123920;28;20023;-66
2022/03/20 05:59:18;;;;;;;13.20;10.27;;;13.30;48.50;;;;;;5123800;28;20030;-65
2022/03/20 06:01:44;;;;;;;15.05;10.98;;;13.30;48.50;;;;;;5123728;28;20027;-65
2022/03/20 06:04:10;;;;;;;14.38;10.80;;;13.30;48.50;;;;;;5123720;28;20556;-67
2022/03/20 06:06:37;;;;;;;15.48;10.82;;;13.30;48.50;;;;;;5123656;28;20027;-66
2022/03/20 06:09:06;;;;;;;14.95;11.32;;;13.30;48.60;;;;;;5123588;28;20556;-67
2022/03/20 06:11:34;;;;;;;15.48;11.20;;;13.30;48.50;;;;;;5123529;28;20300;-66
2022/03/20 06:14:01;;;;;;;13.32;10.15;;;13.30;48.50;;;;;;5123493;28;20024;-66
2022/03/20 06:16:28;;;;;;;12.35;9.77;;;13.30;48.40;;;;;;5123440;28;20030;-66
2022/03/20 06:18:54;;;;;;;13.32;10.35;;;13.30;48.50;;;;;;5123379;28;20047;-66
2022/03/20 06:21:20;;;;;;;15.70;10.88;;;13.30;48.40;;;;;;5123381;27;20027;-67
2022/03/20 06:23:46;;;;;;;13.55;10.88;;;13.30;48.40;;;;;;5121964;28;20358;-67
2022/03/20 06:26:11;;;;;;;14.88;10.95;;;13.40;48.40;;;;;;5123221;28;20602;-67
2022/03/20 06:28:40;;;;;;;13.10;10.23;;;13.40;48.40;;;;;;5123270;28;20242;-66
2022/03/20 06:31:12;;;;;;;12.73;10.57;;;13.40;48.30;;;;;;5123220;27;20032;-68
2022/03/20 06:33:39;;;;;;;12.80;10.15;;;13.40;48.40;;;;;;5123286;28;20497;-68
2022/03/20 06:36:06;;;;;;;12.30;10.00;;;13.40;48.30;;;;;;5123116;28;20024;-68
2022/03/20 06:38:35;;;;;;;15.43;10.88;;;13.40;48.20;;;;;;5123124;28;20019;-69
2022/03/20 06:41:01;;;;;;;13.75;10.38;;;13.40;48.20;;;;;;5123036;28;20032;-67
2022/03/20 06:43:27;;;;;;;13.85;10.50;;;13.40;48.20;;;;;;5122968;28;20193;-67
2022/03/20 06:45:54;;;;;;;12.10;9.85;;;13.40;48.20;;;;;;5122763;28;20055;-66
2022/03/20 06:48:20;;;;;;;13.18;10.27;;;13.40;48.20;;;;;;5122822;27;20031;-66
2022/03/20 06:50:46;;;;;;;15.10;10.43;;;13.40;48.10;;;;;;5122815;28;20034;-67
2022/03/20 06:53:12;;;;;;;12.77;10.05;;;13.40;48.20;;;;;;5122758;28;20493;-67
2022/03/20 06:55:39;;;;;;;13.77;10.98;;;13.40;48.20;;;;;;5122766;28;20035;-67
2022/03/20 06:58:04;;;;;;;12.20;10.02;;;13.40;48.10;;;;;;5122652;28;20024;-68
2022/03/20 07:00:30;;;;;;;13.75;10.48;;;13.50;48.10;;;;;;5122576;28;20073;-66
2022/03/20 07:02:58;;;;;;;14.18;10.50;;;13.50;48.00;;;;;;5121990;28;20090;-67
2022/03/20 07:05:25;;;;;;;14.35;10.43;;;13.50;48.00;;;;;;5121278;28;20239;-66
2022/03/20 07:07:51;;;;;;;11.25;9.98;;;13.60;47.90;;;;;;5122468;28;20035;-67
2022/03/20 07:10:24;;;;;;;12.85;10.10;;;13.50;47.90;;;;;;5122464;28;20012;-67
2022/03/20 07:12:50;;;;;;;11.88;9.93;;;13.50;47.90;;;;;;5122425;28;20031;-67
2022/03/20 07:15:19;;;;;;;13.98;10.73;;;13.50;48.00;;;;;;5122357;28;20028;-67
2022/03/20 07:17:48;;;;;;;13.13;10.20;;;13.60;48.00;;;;;;5122372;28;20122;-67
2022/03/20 07:20:17;;;;;;;12.50;10.20;;;13.50;47.90;;;;;;5122311;28;20248;-67
2022/03/20 07:22:43;;;;;;;13.85;10.40;;;13.60;48.00;;;;;;5122180;28;20094;-66
2022/03/20 07:30:39;;;;;;;12.07;9.48;;;13.60;47.90;;;;;;5122031;28;20228;-65
2022/03/20 07:33:04;;;;;;;12.55;9.93;;;13.60;47.80;;;;;;5122015;28;20020;-66
2022/03/20 07:35:30;;;;;;;14.18;10.88;;;13.60;47.80;;;;;;5121857;28;20024;-66
2022/03/20 07:37:56;;;;;;;13.95;10.70;;;13.70;47.80;;;;;;5121891;28;20311;-67
2022/03/20 07:40:22;;;;;;;14.98;10.88;;;13.70;47.70;;;;;;5121785;28;20317;-65
2022/03/20 07:42:48;;;;;;;12.98;9.50;;;13.70;47.70;;;;;;5121827;28;20027;-65
2022/03/20 07:45:14;;;;;;;13.65;10.43;;;13.70;47.60;;;;;;5121602;28;20048;-66
2022/03/20 07:47:39;;;;;;;11.70;9.77;;;13.70;47.60;;;;;;5120319;28;20031;-67
2022/03/20 07:50:08;;;;;;;13.68;9.98;;;13.70;47.60;;;;;;5121616;28;20024;-65
2022/03/20 07:52:37;;;;;;;12.23;9.82;;;13.70;47.50;;;;;;5121629;28;20046;-66
2022/03/20 07:55:04;;;;;;;11.85;9.57;;;13.80;47.60;;;;;;5121568;28;20100;-66
2022/03/20 07:57:30;;;;;;;12.90;10.27;;;13.70;47.40;;;;;;5121463;28;20228;-66
2022/03/20 07:59:56;;;;;;;13.43;10.13;;;13.80;47.40;;;;;;5121406;28;20082;-67
2022/03/20 08:02:25;;;;;;;12.32;9.90;;;13.80;47.50;;;;;;5121398;28;20023;-66
2022/03/20 08:04:51;;;;;;;13.70;10.10;;;13.80;47.40;;;;;;5121350;28;20091;-66
2022/03/20 08:07:19;;;;;;;13.23;10.25;;;13.80;47.40;;;;;;5121234;28;20023;-69
2022/03/20 08:09:45;;;;;;;12.88;10.63;;;13.80;47.30;;;;;;5121319;27;20309;-66
2022/03/20 08:12:11;;;;;;;13.65;10.52;;;13.90;47.30;;;;;;5121186;28;20025;-67
2022/03/20 08:14:39;;;;;;;12.30;9.60;;;13.90;47.30;;;;;;5120130;28;20256;-66
2022/03/20 08:17:08;;;;;;;11.85;9.45;;;13.90;47.30;;;;;;5121125;28;20031;-66
2022/03/20 08:19:34;;;;;;;;;;;14.00;47.20;;;;;;5121547;28;20028;-65
2022/03/20 08:21:59;;;;;;;13.45;9.65;;;13.90;47.10;;;;;;5121032;28;20111;-66
2022/03/20 08:24:25;;;;;;;12.63;10.27;;;14.00;47.10;;;;;;5121070;27;20031;-67
2022/03/20 08:26:51;;;;;;;12.07;10.10;;;14.00;47.00;;;;;;5120806;28;20026;-66
2022/03/20 08:29:17;;;;;;;12.48;9.88;;;14.00;47.00;;;;;;5120862;28;20300;-66
2022/03/20 08:31:47;;;;;;;11.68;10.20;;;14.00;47.10;;;;;;5120726;28;20019;-66
2022/03/20 08:34:15;;;;;;;14.00;10.45;;;14.00;47.00;;;;;;5121027;28;20091;-66
2022/03/20 08:36:42;;;;;;;12.80;9.82;;;14.00;47.00;;;;;;5120758;28;20023;-66
2022/03/20 08:39:08;;;;;;;13.20;10.30;;;14.00;47.00;;;;;;5120715;27;20022;-68
2022/03/20 08:41:34;;;;;;;10.90;9.05;;;14.00;47.00;;;;;;5120659;28;20107;-67
2022/03/20 08:44:00;;;;;;;12.85;9.82;;;14.00;46.90;;;;;;5120652;28;20023;-67
2022/03/20 08:46:26;;;;;;;12.95;9.98;;;14.10;46.80;;;;;;5120399;28;20332;-66
2022/03/20 08:48:52;;;;;;;12.57;9.43;;;14.10;46.80;;;;;;5120430;28;20029;-66
2022/03/20 08:51:18;;;;;;;14.85;9.95;;;14.10;46.90;;;;;;5119388;28;20307;-66
2022/03/20 08:53:43;;;;;;;11.90;9.68;;;14.10;46.90;;;;;;5120443;28;20324;-66
2022/03/20 08:56:10;;;;;;;12.50;9.73;;;14.10;46.90;;;;;;5120356;28;20310;-66
2022/03/20 08:58:35;;;;;;;12.32;10.02;;;14.10;46.90;;;;;;5120411;28;20035;-66
2022/03/20 09:01:01;;;;;;;13.75;9.80;;;14.10;46.90;;;;;;5120295;28;20034;-67
2022/03/20 09:03:27;;;;;;;12.50;9.45;;;14.10;46.90;;;;;;5120230;28;20019;-67
2022/03/20 09:05:52;;;;;;;11.77;9.73;;;14.10;46.90;;;;;;5120120;28;20094;-66
2022/03/20 09:08:18;;;;;;;12.23;9.50;;;14.10;46.90;;;;;;5120120;28;20039;-67
2022/03/20 09:10:44;;;;;;;11.50;9.88;;;14.10;46.80;;;;;;5120175;28;20372;-67
2022/03/20 09:13:09;;;;;;;12.05;9.57;;;14.10;46.80;;;;;;5120078;28;20128;-66
2022/03/20 09:15:35;;;;;;;12.13;9.45;;;14.10;46.90;;;;;;5120121;28;20027;-67
2022/03/20 09:20:46;;;;;;;12.68;10.05;;;14.20;46.80;;;;;;5120103;28;20069;-65
2022/03/20 09:23:13;;;;;;;13.10;9.98;;;14.20;46.80;;;;;;5119974;28;20086;-66
2022/03/20 09:25:39;;;;;;;12.10;9.63;;;14.20;46.80;;;;;;5119661;28;20026;-66
2022/03/20 09:28:07;;;;;;;13.43;9.65;;;14.20;46.70;;;;;;5119834;28;20028;-67
2022/03/20 09:30:34;;;;;;;12.25;9.48;;;14.30;46.80;;;;;;5119940;28;20023;-66
2022/03/20 09:33:05;;;;;;;12.73;10.02;;;14.30;46.90;;;;;;5119817;28;20049;-66
2022/03/20 09:35:32;;;;;;;12.10;10.25;;;14.30;46.80;;;;;;5119867;28;20027;-67
2022/03/20 09:37:57;;;;;;;13.23;10.00;;;14.30;46.80;;;;;;5119825;28;20020;-67
2022/03/20 09:40:24;;;;;;;12.88;10.05;;;14.30;46.80;;;;;;5119745;28;20527;-65
2022/03/20 09:42:51;;;;;;;12.15;10.23;;;14.40;46.70;;;;;;5119763;28;20042;-66
2022/03/20 09:45:18;;;;;;;12.38;9.73;;;14.40;46.70;;;;;;5119577;28;20059;-66
2022/03/20 09:47:45;;;;;;;12.05;9.10;;;14.40;46.60;;;;;;5119603;28;20061;-68
2022/03/20 09:50:13;;;;;;;11.95;9.57;;;14.40;46.60;;;;;;5119691;28;20023;-66
2022/03/20 09:52:40;;;;;;;12.37;9.63;;;14.40;46.60;;;;;;5119717;28;20028;-66
2022/03/20 09:55:08;;;;;;;13.40;9.77;;;14.40;46.70;;;;;;5119724;28;20084;-66
2022/03/20 09:57:34;;;;;;;12.60;9.80;;;14.40;46.70;;;;;;5119607;28;20252;-67
2022/03/20 10:00:04;;;;;;;11.07;9.10;;;14.50;46.60;;;;;;5119571;28;20335;-66
2022/03/20 10:02:31;;;;;;;13.52;9.70;;;14.40;46.60;;;;;;5119570;28;20049;-66
2022/03/20 10:05:00;;;;;;;12.18;9.77;;;14.50;46.30;;;;;;5119536;28;20026;-67
2022/03/20 10:07:31;;;;;;;12.77;10.48;;;14.50;46.40;;;;;;5119483;28;20221;-66
2022/03/20 10:10:06;;;;;;;11.05;8.80;;;14.50;46.40;;;;;;5119555;28;20035;-67
2022/03/20 10:12:34;;;;;;;12.65;9.73;;;14.50;46.50;;;;;;5119501;28;20035;-67
2022/03/20 10:15:01;;;;;;;11.57;9.77;;;14.50;46.40;;;;;;5118192;28;20023;-66
2022/03/20 10:17:26;;;;;;;10.98;9.27;;;14.50;46.50;;;;;;5119406;28;20034;-67
2022/03/20 10:19:52;;;;;;;10.13;8.52;;;14.50;46.30;;;;;;5119401;28;20085;-67
2022/03/20 10:22:18;;;;;;;11.52;9.15;;;14.60;46.30;;;;;;5119335;28;20099;-66
2022/03/20 10:24:51;;;;;;;12.25;9.60;;;14.60;46.20;;;;;;5119350;28;20042;-66
2022/03/20 10:27:17;;;;;;;10.88;9.30;;;14.60;46.30;;;;;;5119276;28;20327;-65
2022/03/20 10:30:00;;;;;;;10.60;8.82;;;14.60;46.30;;;;;;5119246;28;20086;-66
2022/03/20 10:32:26;;;;;;;10.77;9.02;;;14.60;46.30;;;;;;5119377;28;20091;-66
2022/03/20 10:35:01;;;;;;;12.25;9.50;;;14.60;46.30;;;;;;5119360;28;20016;-66
2022/03/20 10:37:48;;;;;;;12.82;9.88;;;14.70;46.40;;;;;;5121324;28;20046;-66
2022/03/20 10:40:23;;;;;;;12.63;10.15;;;14.60;46.30;;;;;;5123011;28;20047;-67
2022/03/20 10:43:24;;;;;;;12.23;9.65;;;14.70;46.30;;;;;;5122940;28;20027;-66
2022/03/20 10:45:54;;;;;;;11.38;9.20;;;14.70;46.20;;;;;;5059097;28;20060;-67
2022/03/20 10:48:30;;;;;;;12.93;10.20;;;14.80;46.10;;;;;;5111288;28;20047;-66
2022/03/20 10:50:56;;;;;;;12.40;9.50;;;14.80;46.10;;;;;;5122842;28;20028;-66
2022/03/20 10:53:22;;;;;;;12.13;9.38;;;14.90;46.10;;;;;;5122778;28;20071;-67
2022/03/20 10:55:47;;;;;;;10.88;8.73;;;14.80;46.20;;;;;;5122704;28;20019;-66
2022/03/20 10:58:20;;;;;;;12.60;9.57;;;14.90;46.10;;;;;;5122628;28;20028;-67
2022/03/20 11:00:46;;;;;;;14.15;9.68;;;14.90;46.10;;;;;;5122616;28;20016;-66
2022/03/20 11:03:21;;;;;;;13.77;10.57;;;14.90;46.10;;;;;;5122571;28;20064;-67
2022/03/20 11:05:47;;;;;;;11.93;9.68;;;14.90;46.00;;;;;;5122559;28;20020;-66
2022/03/20 11:08:13;;;;;;;12.52;9.90;;;14.90;46.10;;;;;;5121101;28;20103;-67
2022/03/20 11:10:44;;;;;;;10.73;8.98;;;14.90;46.00;;;;;;5122391;28;20525;-67
2022/03/20 11:13:13;;;;;;;13.48;9.40;;;15.00;46.10;;;;;;5122395;28;20239;-67
2022/03/20 11:15:44;;;;;;;12.32;9.65;;;15.00;46.10;;;;;;5122334;28;20069;-66
2022/03/20 11:18:11;;;;;;;12.23;9.90;;;15.00;46.00;;;;;;5122304;28;20292;-66
2022/03/20 11:20:39;;;;;;;12.50;9.57;;;15.00;46.00;;;;;;5122119;28;20022;-67
2022/03/20 11:23:06;;;;;;;11.65;9.35;;;15.00;46.00;;;;;;5122278;28;20023;-67
2022/03/20 11:25:35;;;;;;;13.05;9.60;;;15.00;45.80;;;;;;5122115;28;20086;-67
2022/03/20 11:28:03;;;;;;;;;;;15.00;46.00;;;;;;5122491;28;20055;-66
2022/03/20 11:30:32;;;;;;;11.90;9.68;;;15.00;46.00;;;;;;5122050;28;19908;-66
2022/03/20 11:33:00;;;;;;;;;;;15.00;46.00;;;;;;5122400;28;20038;-66
2022/03/20 11:35:30;;;;;;;13.00;9.82;;;15.00;45.90;;;;;;5121946;28;19908;-67
2022/03/20 11:37:59;;;;;;;12.07;9.75;;;15.00;45.90;;;;;;5121919;28;20091;-67
2022/03/20 11:40:26;;;;;;;;;;;15.00;45.90;;;;;;5122351;28;20027;-67
2022/03/20 11:43:11;;;;;;;12.63;9.75;;;15.00;45.90;;;;;;5121845;28;19906;-68
2022/03/20 11:45:37;;;;;;;10.70;9.25;;;15.00;46.00;;;;;;5121273;28;20036;-68
2022/03/20 11:48:15;;;;;;;12.68;10.10;;;15.00;46.00;;;;;;5120155;28;20029;-66
2022/03/20 11:50:44;;;;;;;12.63;9.85;;;15.00;46.10;;;;;;5121626;28;20016;-68
2022/03/20 11:53:10;;;;;;;13.73;9.95;;;15.10;46.00;;;;;;5120264;28;20348;-67
2022/03/20 11:55:52;;;;;;;12.10;10.00;;;15.10;45.90;;;;;;5121539;27;20031;-67
2022/03/20 11:58:20;;;;;;;12.27;9.80;;;15.10;46.00;;;;;;5120168;28;20086;-66
2022/03/20 12:01:03;;;;;;;12.15;9.55;;;15.10;46.00;;;;;;5121376;28;20098;-67
2022/03/20 12:03:34;;;;;;;11.30;9.02;;;15.10;46.00;;;;;;5121416;27;20059;-67
2022/03/20 12:06:18;;;;;;;11.82;9.05;;;15.10;46.00;;;;;;5121275;28;20027;-67
2022/03/20 12:09:16;;;;;;;12.30;9.50;;;15.10;46.10;;;;;;5121096;28;20036;-68
2022/03/20 12:12:07;;;;;;;11.00;9.15;;;15.10;46.10;;;;;;5121320;28;20073;-67
2022/03/20 12:14:38;;;;;;;11.88;9.82;;;15.10;46.10;;;;;;5121154;28;20046;-66
2022/03/20 12:17:05;;;;;;;11.50;9.05;;;15.10;46.10;;;;;;5121119;28;20027;-66
2022/03/20 12:19:53;;;;;;;12.35;9.45;;;15.10;46.00;;;;;;5121027;28;20027;-67
2022/03/20 12:22:19;;;;;;;11.77;9.85;;;15.10;46.00;;;;;;5120934;28;20091;-66
2022/03/20 12:25:00;;;;;;;12.88;10.00;;;15.10;46.00;;;;;;5120866;28;20051;-66
2022/03/20 12:27:25;;;;;;;12.00;9.50;;;15.20;46.00;;;;;;5120831;28;20028;-67
2022/03/20 12:30:15;;;;;;;10.93;8.52;;;15.20;46.10;;;;;;5120823;28;20016;-68
2022/03/20 12:32:46;;;;;;;12.02;9.95;;;15.20;46.00;;;;;;5112713;28;20044;-66
2022/03/20 12:35:15;;;;;;;10.55;9.23;;;15.20;46.00;;;;;;5119350;28;20015;-67
2022/03/20 12:37:42;;;;;;;11.82;9.25;;;15.20;45.90;;;;;;5120716;28;20027;-67
2022/03/20 12:40:11;;;;;;;13.60;10.60;;;15.20;45.90;;;;;;5120631;28;20244;-66
2022/03/20 12:42:42;;;;;;;;;;;15.20;46.00;;;;;;5121081;28;20050;-68
2022/03/20 12:45:14;;;;;;;11.45;9.32;;;15.20;46.00;;;;;;5120303;28;19908;-66
2022/03/20 12:48:05;;;;;;;12.98;10.00;;;15.20;46.00;;;;;;5120406;28;20031;-66
2022/03/20 12:50:40;;;;;;;10.35;8.98;;;15.20;45.80;;;;;;5120528;28;20311;-67
2022/03/20 12:53:17;;;;;;;12.57;9.52;;;15.20;46.00;;;;;;5120420;28;20024;-67
2022/03/20 12:55:49;;;;;;;11.68;8.75;;;15.30;46.00;;;;;;5120401;28;20027;-67
2022/03/20 12:58:18;;;;;;;9.98;8.77;;;15.20;45.80;;;;;;5120404;28;20050;-66
2022/03/20 13:00:44;;;;;;;11.82;9.25;;;15.20;46.00;;;;;;5119816;28;20038;-67
2022/03/20 13:03:15;;;;;;;9.88;8.73;;;15.20;46.10;;;;;;5120179;28;20038;-66
2022/03/20 13:06:00;;;;;;;10.85;8.82;;;15.30;46.20;;;;;;5120237;28;20031;-66
2022/03/20 13:08:30;;;;;;;11.85;9.65;;;15.30;46.20;;;;;;5120121;28;20047;-68
2022/03/20 13:11:04;;;;;;;12.15;9.80;;;15.30;46.10;;;;;;5120114;28;20015;-67